createdAt,value
2022-09-15T00:00:54.831Z,90.13
2022-09-15T00:01:56.758Z,90.57
2022-09-15T00:02:58.384Z,90.62
2022-09-15T00:03:59.951Z,90.66
2022-09-15T00:05:01.409Z,91.02
2022-09-15T00:06:03.775Z,91.20
2022-09-15T00:07:05.680Z,90.98
2022-09-15T00:08:07.142Z,90.59
2022-09-15T00:09:08.710Z,90.72
2022-09-15T00:10:10.787Z,89.87
2022-09-15T00:11:20.740Z,89.31
2022-09-15T00:12:22.453Z,89.24
2022-09-15T00:13:25.804Z,89.54
2022-09-15T00:14:27.632Z,90.07
2022-09-15T00:15:29.332Z,90.58
2022-09-15T00:16:32.956Z,90.78
2022-09-15T00:17:35.863Z,91.11
2022-09-15T00:18:39.852Z,91.27
2022-09-15T00:19:41.345Z,90.93
2022-09-15T00:20:44.581Z,90.32
2022-09-15T00:21:46.933Z,89.88
2022-09-15T00:22:49.066Z,89.56
2022-09-15T00:23:51.615Z,89.55
2022-09-15T00:24:53.182Z,89.07
2022-09-15T00:25:55.171Z,89.37
2022-09-15T00:26:57.099Z,89.74
2022-09-15T00:27:58.765Z,90.60
2022-09-15T00:29:01.407Z,91.31
2022-09-15T00:30:04.251Z,92.11
2022-09-15T00:31:07.518Z,92.86
2022-09-15T00:32:09.233Z,93.57
2022-09-15T00:33:11.561Z,92.89
2022-09-15T00:34:14.145Z,92.57
2022-09-15T00:35:15.875Z,92.49
2022-09-15T00:36:18.522Z,92.61
2022-09-15T00:37:20.012Z,92.24
2022-09-15T00:38:22.037Z,92.30
2022-09-15T00:39:23.604Z,92.18
2022-09-15T00:40:25.771Z,91.69
2022-09-15T00:41:27.716Z,91.38
2022-09-15T00:42:29.419Z,91.77
2022-09-15T00:43:51.479Z,91.70
2022-09-15T00:44:59.130Z,92.35
2022-09-15T00:46:00.773Z,93.06
2022-09-15T00:47:18.661Z,93.11
2022-09-15T00:48:22.874Z,93.66
2022-09-15T00:49:31.752Z,93.59
2022-09-15T00:50:34.721Z,93.92
2022-09-15T00:51:40.517Z,94.12
2022-09-15T00:52:56.324Z,94.08
2022-09-15T00:54:04.219Z,94.02
2022-09-15T00:55:31.211Z,94.41
2022-09-15T00:56:34.813Z,94.58
2022-09-15T00:57:51.175Z,94.09
2022-09-15T00:58:57.918Z,94.39
2022-09-15T01:00:03.864Z,94.18
2022-09-15T01:01:08.544Z,94.40
2022-09-15T01:02:28.838Z,94.34
2022-09-15T01:03:33.215Z,94.51
2022-09-15T01:04:34.714Z,94.61
2022-09-15T01:05:43.029Z,94.44
2022-09-15T01:06:52.013Z,94.20
2022-09-15T01:07:53.354Z,94.32
2022-09-15T01:09:01.940Z,94.40
2022-09-15T01:10:08.502Z,94.62
2022-09-15T01:11:10.461Z,94.59
2022-09-15T01:12:12.034Z,94.41
2022-09-15T01:13:14.837Z,94.21
2022-09-15T01:14:16.621Z,93.81
2022-09-15T01:15:18.393Z,93.55
2022-09-15T01:16:33.444Z,93.11
2022-09-15T01:17:34.822Z,93.07
2022-09-15T01:18:57.248Z,93.06
2022-09-15T01:20:21.371Z,91.79
2022-09-15T01:21:45.449Z,91.97
2022-09-15T01:23:05.292Z,92.13
2022-09-15T01:24:45.133Z,91.37
2022-09-15T01:26:17.573Z,91.18
2022-09-15T01:27:42.189Z,92.00
2022-09-15T01:29:03.861Z,92.68
2022-09-15T01:30:16.116Z,92.98
2022-09-15T01:31:26.765Z,93.00
2022-09-15T01:33:01.286Z,92.65
2022-09-15T01:34:18.596Z,92.43
2022-09-15T01:35:40.666Z,92.37
2022-09-15T01:36:52.721Z,92.84
2022-09-15T01:38:24.783Z,93.15
2022-09-15T01:39:33.009Z,92.88
2022-09-15T01:40:44.794Z,92.40
2022-09-15T01:41:51.154Z,92.30
2022-09-15T01:42:54.052Z,92.30
2022-09-15T01:44:05.291Z,92.65
2022-09-15T01:45:11.457Z,92.70
2022-09-15T01:46:15.403Z,92.87
2022-09-15T01:47:21.082Z,92.63
2022-09-15T01:48:26.488Z,92.67
2022-09-15T01:49:53.118Z,92.54
2022-09-15T01:51:00.355Z,92.48
2022-09-15T01:52:02.344Z,92.37
2022-09-15T01:53:12.269Z,92.21
2022-09-15T01:54:16.321Z,92.51
2022-09-15T01:55:40.511Z,92.59
2022-09-15T01:56:42.111Z,92.85
2022-09-15T01:57:44.067Z,93.45
2022-09-15T01:58:45.623Z,93.96
2022-09-15T01:59:48.928Z,94.17
2022-09-15T02:00:58.893Z,94.25
2022-09-15T02:02:05.765Z,93.61
2022-09-15T02:03:27.166Z,93.75
2022-09-15T02:04:36.773Z,94.60
2022-09-15T02:05:45.063Z,94.61
2022-09-15T02:06:56.021Z,95.25
2022-09-15T02:08:25.607Z,95.62
2022-09-15T02:09:36.798Z,95.99
2022-09-15T02:10:45.011Z,95.69
2022-09-15T02:12:12.344Z,95.69
2022-09-15T02:13:17.375Z,95.25
2022-09-15T02:15:03.531Z,94.55
2022-09-15T02:16:15.294Z,94.72
2022-09-15T02:17:19.813Z,94.75
2022-09-15T02:18:36.352Z,94.72
2022-09-15T02:19:41.801Z,94.68
2022-09-15T02:21:03.558Z,94.07
2022-09-15T02:22:10.622Z,93.41
2022-09-15T02:23:23.793Z,93.41
2022-09-15T02:24:31.028Z,93.64
2022-09-15T02:25:37.982Z,93.44
2022-09-15T02:26:41.198Z,93.56
2022-09-15T02:27:50.148Z,93.90
2022-09-15T02:28:54.181Z,93.59
2022-09-15T02:30:03.221Z,93.42
2022-09-15T02:31:08.951Z,93.37
2022-09-15T02:32:13.686Z,93.80
2022-09-15T02:33:24.110Z,93.77
2022-09-15T02:34:32.440Z,93.87
2022-09-15T02:35:36.142Z,93.87
2022-09-15T02:36:38.426Z,93.91
2022-09-15T02:37:40.217Z,93.75
2022-09-15T02:38:54.360Z,93.28
2022-09-15T02:40:00.276Z,92.66
2022-09-15T02:41:02.823Z,92.99
2022-09-15T02:42:04.880Z,93.19
2022-09-15T02:43:11.716Z,93.11
2022-09-15T02:44:13.228Z,93.15
2022-09-15T02:45:14.744Z,93.23
2022-09-15T02:46:21.296Z,93.58
2022-09-15T02:47:23.571Z,93.33
2022-09-15T02:48:25.683Z,93.11
2022-09-15T02:49:27.193Z,93.02
2022-09-15T02:50:28.689Z,93.27
2022-09-15T02:51:31.068Z,93.25
2022-09-15T02:52:32.596Z,93.04
2022-09-15T02:53:34.546Z,93.02
2022-09-15T02:54:35.992Z,93.11
2022-09-15T02:55:37.489Z,93.24
2022-09-15T02:56:39.011Z,92.96
2022-09-15T02:57:40.476Z,93.08
2022-09-15T02:58:43.534Z,93.28
2022-09-15T03:00:03.474Z,93.01
2022-09-15T03:01:06.692Z,93.03
2022-09-15T03:02:09.181Z,93.27
2022-09-15T03:03:11.036Z,93.25
2022-09-15T03:04:12.788Z,93.79
2022-09-15T03:05:15.566Z,93.97
2022-09-15T03:06:17.094Z,94.08
2022-09-15T03:07:19.364Z,94.12
2022-09-15T03:08:21.093Z,94.58
2022-09-15T03:09:22.554Z,94.91
2022-09-15T03:10:25.665Z,94.72
2022-09-15T03:11:29.355Z,94.59
2022-09-15T03:12:30.827Z,94.71
2022-09-15T03:13:32.268Z,94.42
2022-09-15T03:14:34.443Z,94.49
2022-09-15T03:15:36.925Z,94.40
2022-09-15T03:16:38.439Z,94.37
2022-09-15T03:17:44.689Z,94.49
2022-09-15T03:18:46.806Z,94.17
2022-09-15T03:19:48.622Z,94.26
2022-09-15T03:20:50.042Z,93.76
2022-09-15T03:21:51.984Z,93.44
2022-09-15T03:22:54.343Z,93.17
2022-09-15T03:23:58.318Z,92.96
2022-09-15T03:24:59.885Z,93.19
2022-09-15T03:26:02.264Z,94.06
2022-09-15T03:27:04.507Z,94.75
2022-09-15T03:28:05.967Z,95.19
2022-09-15T03:29:07.802Z,95.30
2022-09-15T03:30:10.483Z,95.63
2022-09-15T03:31:12.057Z,95.61
2022-09-15T03:32:13.583Z,95.20
2022-09-15T03:33:15.028Z,95.50
2022-09-15T03:34:16.975Z,95.71
2022-09-15T03:35:18.425Z,95.72
2022-09-15T03:36:19.862Z,95.88
2022-09-15T03:37:21.372Z,96.01
2022-09-15T03:38:23.246Z,95.60
2022-09-15T03:39:25.158Z,95.44
2022-09-15T03:40:26.669Z,95.05
2022-09-15T03:41:29.316Z,94.90
2022-09-15T03:42:30.930Z,94.81
2022-09-15T03:43:32.876Z,94.64
2022-09-15T03:44:35.792Z,94.97
2022-09-15T03:45:38.909Z,94.59
2022-09-15T03:46:40.417Z,94.14
2022-09-15T03:47:41.918Z,94.55
2022-09-15T03:48:43.782Z,95.07
2022-09-15T03:49:45.228Z,95.25
2022-09-15T03:50:47.267Z,95.19
2022-09-15T03:51:48.721Z,95.41
2022-09-15T03:52:50.569Z,95.66
2022-09-15T03:53:52.475Z,95.88
2022-09-15T03:54:54.063Z,95.99
2022-09-15T03:55:55.589Z,95.96
2022-09-15T03:56:57.085Z,95.67
2022-09-15T03:57:58.623Z,95.24
2022-09-15T03:59:02.184Z,94.90
2022-09-15T04:00:05.445Z,94.67
2022-09-15T04:01:07.035Z,94.37
2022-09-15T04:02:08.577Z,93.99
2022-09-15T04:03:10.385Z,93.92
2022-09-15T04:04:12.763Z,93.87
2022-09-15T04:05:14.670Z,93.38
2022-09-15T04:06:16.753Z,92.88
2022-09-15T04:07:18.198Z,92.96
2022-09-15T04:08:19.679Z,93.01
2022-09-15T04:09:21.892Z,93.63
2022-09-15T04:10:24.476Z,93.39
2022-09-15T04:11:26.470Z,93.61
2022-09-15T04:12:30.009Z,93.61
2022-09-15T04:13:31.986Z,93.33
2022-09-15T04:14:33.495Z,93.65
2022-09-15T04:15:34.937Z,93.54
2022-09-15T04:16:36.553Z,93.23
2022-09-15T04:17:38.037Z,92.89
2022-09-15T04:18:40.486Z,92.57
2022-09-15T04:19:41.941Z,92.35
2022-09-15T04:20:43.379Z,92.53
2022-09-15T04:21:45.762Z,92.27
2022-09-15T04:22:47.218Z,92.18
2022-09-15T04:23:49.871Z,91.74
2022-09-15T04:24:51.421Z,91.75
2022-09-15T04:26:04.239Z,91.44
2022-09-15T04:27:05.698Z,90.96
2022-09-15T04:28:07.174Z,91.10
2022-09-15T04:29:14.568Z,91.95
2022-09-15T04:30:16.038Z,92.13
2022-09-15T04:31:18.157Z,92.14
2022-09-15T04:32:20.610Z,92.41
2022-09-15T04:33:22.464Z,92.48
2022-09-15T04:34:24.957Z,93.02
2022-09-15T04:35:26.488Z,92.95
2022-09-15T04:36:28.940Z,92.45
2022-09-15T04:37:31.284Z,92.04
2022-09-15T04:38:33.460Z,91.79
2022-09-15T04:39:34.954Z,91.61
2022-09-15T04:40:36.752Z,91.15
2022-09-15T04:41:38.314Z,91.59
2022-09-15T04:42:40.024Z,91.77
2022-09-15T04:43:43.666Z,91.55
2022-09-15T04:44:45.089Z,91.53
2022-09-15T04:45:46.552Z,91.41
2022-09-15T04:46:48.786Z,91.04
2022-09-15T04:47:51.664Z,91.00
2022-09-15T04:48:54.219Z,91.36
2022-09-15T04:49:55.667Z,91.14
2022-09-15T04:51:08.793Z,90.79
2022-09-15T04:52:10.234Z,91.14
2022-09-15T04:53:11.668Z,91.60
2022-09-15T04:54:13.430Z,91.60
2022-09-15T04:55:14.940Z,92.09
2022-09-15T04:56:21.630Z,91.70
2022-09-15T04:57:23.046Z,91.94
2022-09-15T04:58:24.791Z,91.77
2022-09-15T04:59:26.259Z,91.97
2022-09-15T05:00:28.284Z,92.16
2022-09-15T05:01:32.307Z,92.24
2022-09-15T05:02:33.851Z,92.41
2022-09-15T05:03:37.556Z,92.32
2022-09-15T05:04:39.064Z,92.52
2022-09-15T05:05:41.264Z,93.06
2022-09-15T05:06:42.708Z,93.74
2022-09-15T05:07:44.225Z,93.81
2022-09-15T05:08:54.557Z,93.91
2022-09-15T05:09:56.098Z,94.02
2022-09-15T05:11:06.451Z,94.04
2022-09-15T05:12:08.022Z,93.91
2022-09-15T05:13:09.873Z,93.82
2022-09-15T05:14:11.823Z,92.90
2022-09-15T05:15:13.325Z,92.37
2022-09-15T05:16:18.241Z,92.95
2022-09-15T05:17:20.905Z,92.48
2022-09-15T05:18:24.091Z,92.90
2022-09-15T05:19:25.656Z,92.59
2022-09-15T05:20:27.101Z,92.43
2022-09-15T05:21:29.359Z,91.91
2022-09-15T05:22:31.103Z,92.28
2022-09-15T05:23:34.782Z,91.91
2022-09-15T05:24:36.240Z,91.58
2022-09-15T05:25:38.794Z,91.86
2022-09-15T05:26:41.806Z,92.18
2022-09-15T05:27:43.379Z,91.97
2022-09-15T05:28:45.285Z,92.01
2022-09-15T05:29:46.805Z,92.05
2022-09-15T05:30:48.659Z,91.86
2022-09-15T05:31:50.222Z,91.96
2022-09-15T05:32:53.717Z,91.91
2022-09-15T05:33:55.571Z,91.96
2022-09-15T05:34:57.020Z,92.08
2022-09-15T05:36:00.655Z,92.03
2022-09-15T05:37:02.610Z,91.86
2022-09-15T05:38:04.459Z,91.72
2022-09-15T05:39:05.915Z,91.71
2022-09-15T05:40:08.705Z,91.68
2022-09-15T05:41:12.157Z,92.20
2022-09-15T05:42:13.641Z,92.34
2022-09-15T05:43:16.347Z,91.65
2022-09-15T05:44:17.870Z,91.42
2022-09-15T05:45:19.370Z,91.55
2022-09-15T05:46:20.911Z,91.43
2022-09-15T05:47:23.356Z,91.19
2022-09-15T05:48:25.250Z,91.32
2022-09-15T05:49:26.758Z,91.57
2022-09-15T05:50:28.227Z,91.48
2022-09-15T05:51:30.268Z,91.35
2022-09-15T05:52:31.869Z,91.64
2022-09-15T05:53:35.599Z,91.96
2022-09-15T05:54:37.024Z,92.65
2022-09-15T05:55:38.478Z,92.94
2022-09-15T05:56:40.055Z,93.36
2022-09-15T05:57:41.665Z,93.21
2022-09-15T05:58:45.897Z,93.24
2022-09-15T05:59:47.449Z,92.83
2022-09-15T06:00:49.208Z,92.67
2022-09-15T06:01:50.701Z,92.32
2022-09-15T06:02:52.293Z,91.85
2022-09-15T06:03:55.370Z,92.02
2022-09-15T06:04:56.867Z,92.30
2022-09-15T06:05:59.994Z,92.12
2022-09-15T06:07:01.415Z,92.32
2022-09-15T06:08:03.159Z,92.66
2022-09-15T06:09:05.637Z,91.95
2022-09-15T06:10:07.941Z,91.85
2022-09-15T06:11:15.672Z,91.88
2022-09-15T06:12:18.425Z,92.16
2022-09-15T06:13:20.214Z,92.12
2022-09-15T06:14:21.611Z,91.52
2022-09-15T06:15:23.810Z,92.15
2022-09-15T06:16:25.349Z,93.04
2022-09-15T06:17:27.294Z,93.27
2022-09-15T06:18:28.808Z,93.08
2022-09-15T06:19:30.388Z,93.00
2022-09-15T06:20:31.894Z,93.30
2022-09-15T06:21:33.637Z,94.08
2022-09-15T06:22:35.448Z,94.80
2022-09-15T06:23:38.007Z,95.07
2022-09-15T06:24:39.481Z,95.47
2022-09-15T06:25:40.936Z,95.42
2022-09-15T06:26:42.388Z,95.46
2022-09-15T06:27:43.861Z,96.21
2022-09-15T06:28:59.165Z,96.35
2022-09-15T06:30:00.636Z,95.52
2022-09-15T06:31:02.211Z,95.35
2022-09-15T06:32:05.135Z,95.46
2022-09-15T06:33:06.881Z,94.92
2022-09-15T06:34:11.309Z,94.30
2022-09-15T06:35:12.824Z,93.67
2022-09-15T06:36:15.951Z,93.66
2022-09-15T06:37:17.895Z,93.78
2022-09-15T06:38:19.323Z,93.83
2022-09-15T06:39:20.777Z,93.59
2022-09-15T06:40:22.363Z,93.33
2022-09-15T06:41:24.443Z,93.21
2022-09-15T06:42:26.203Z,94.00
2022-09-15T06:43:27.725Z,94.16
2022-09-15T06:44:29.419Z,94.16
2022-09-15T06:45:31.189Z,94.31
2022-09-15T06:46:32.711Z,94.08
2022-09-15T06:47:34.325Z,93.89
2022-09-15T06:48:37.197Z,93.83
2022-09-15T06:49:38.562Z,93.70
2022-09-15T06:50:40.006Z,93.31
2022-09-15T06:51:42.031Z,92.98
2022-09-15T06:52:43.959Z,91.77
2022-09-15T06:53:46.225Z,91.43
2022-09-15T06:54:48.108Z,90.16
2022-09-15T06:55:50.128Z,91.35
2022-09-15T06:56:51.562Z,90.48
2022-09-15T06:57:53.052Z,90.48
2022-09-15T06:58:55.983Z,90.55
2022-09-15T06:59:57.398Z,90.22
2022-09-15T07:01:04.127Z,91.04
2022-09-15T07:02:05.646Z,91.26
2022-09-15T07:03:07.467Z,91.09
2022-09-15T07:04:10.022Z,91.04
2022-09-15T07:05:11.545Z,91.16
2022-09-15T07:06:13.313Z,90.89
2022-09-15T07:07:15.089Z,90.35
2022-09-15T07:08:17.175Z,90.16
2022-09-15T07:09:19.531Z,89.42
2022-09-15T07:10:21.010Z,89.54
2022-09-15T07:11:22.847Z,90.24
2022-09-15T07:12:24.273Z,89.82
2022-09-15T07:13:26.219Z,90.47
2022-09-15T07:14:27.647Z,90.41
2022-09-15T07:15:29.406Z,90.27
2022-09-15T07:16:30.896Z,90.06
2022-09-15T07:17:32.748Z,89.75
2022-09-15T07:18:37.669Z,89.67
2022-09-15T07:19:43.164Z,90.40
2022-09-15T07:20:44.797Z,90.81
2022-09-15T07:21:46.232Z,90.56
2022-09-15T07:22:47.686Z,90.61
2022-09-15T07:23:49.762Z,90.30
2022-09-15T07:24:51.166Z,90.10
2022-09-15T07:25:52.620Z,89.35
2022-09-15T07:26:54.638Z,89.70
2022-09-15T07:27:56.077Z,90.60
2022-09-15T07:29:03.718Z,90.62
2022-09-15T07:30:08.554Z,90.62
2022-09-15T07:31:14.073Z,91.37
2022-09-15T07:32:15.580Z,91.21
2022-09-15T07:33:17.065Z,90.81
2022-09-15T07:34:18.769Z,90.56
2022-09-15T07:35:21.772Z,90.49
2022-09-15T07:36:23.298Z,90.81
2022-09-15T07:37:25.052Z,90.45
2022-09-15T07:38:26.565Z,90.23
2022-09-15T07:39:29.046Z,90.49
2022-09-15T07:40:31.505Z,91.12
2022-09-15T07:41:33.365Z,91.25
2022-09-15T07:42:35.648Z,91.49
2022-09-15T07:43:37.456Z,91.33
2022-09-15T07:44:38.943Z,91.31
2022-09-15T07:45:40.724Z,91.76
2022-09-15T07:46:42.223Z,91.64
2022-09-15T07:47:43.742Z,91.51
2022-09-15T07:48:46.800Z,91.03
2022-09-15T07:49:48.240Z,91.00
2022-09-15T07:50:49.740Z,91.36
2022-09-15T07:51:51.250Z,91.43
2022-09-15T07:52:56.172Z,91.56
2022-09-15T07:53:57.703Z,91.81
2022-09-15T07:54:59.155Z,91.51
2022-09-15T07:56:00.632Z,91.18
2022-09-15T07:57:02.318Z,91.87
2022-09-15T07:58:03.860Z,92.28
2022-09-15T07:59:05.402Z,91.64
2022-09-15T08:00:07.731Z,90.80
2022-09-15T08:01:14.859Z,90.45
2022-09-15T08:02:18.615Z,90.75
2022-09-15T08:03:20.124Z,90.14
2022-09-15T08:04:21.566Z,89.84
2022-09-15T08:05:28.107Z,89.86
2022-09-15T08:06:29.823Z,89.54
2022-09-15T08:07:34.462Z,90.08
2022-09-15T08:08:41.329Z,90.25
2022-09-15T08:09:42.890Z,89.88
2022-09-15T08:10:44.739Z,89.75
2022-09-15T08:11:49.051Z,88.89
2022-09-15T08:12:54.621Z,88.94
2022-09-15T08:13:56.304Z,89.12
2022-09-15T08:14:58.049Z,89.43
2022-09-15T08:16:10.982Z,89.26
2022-09-15T08:17:13.223Z,89.85
2022-09-15T08:18:15.308Z,89.61
2022-09-15T08:19:17.357Z,90.13
2022-09-15T08:20:19.988Z,90.17
2022-09-15T08:21:22.901Z,90.20
2022-09-15T08:22:25.155Z,89.80
2022-09-15T08:23:27.019Z,89.35
2022-09-15T08:24:29.344Z,89.37
2022-09-15T08:25:31.406Z,89.87
2022-09-15T08:26:32.882Z,90.07
2022-09-15T08:27:34.375Z,89.91
2022-09-15T08:28:36.434Z,89.88
2022-09-15T08:29:37.994Z,89.36
2022-09-15T08:30:39.546Z,88.83
2022-09-15T08:31:41.438Z,89.33
2022-09-15T08:32:43.018Z,89.96
2022-09-15T08:33:49.844Z,89.80
2022-09-15T08:34:51.526Z,89.70
2022-09-15T08:35:53.995Z,89.25
2022-09-15T08:36:56.356Z,89.52
2022-09-15T08:37:58.015Z,89.83
2022-09-15T08:38:59.791Z,89.63
2022-09-15T08:40:01.766Z,89.11
2022-09-15T08:41:06.533Z,88.97
2022-09-15T08:42:15.844Z,88.94
2022-09-15T08:43:24.676Z,88.65
2022-09-15T08:44:32.069Z,88.36
2022-09-15T08:45:47.930Z,88.16
2022-09-15T08:47:01.032Z,88.13
2022-09-15T08:48:04.841Z,88.45
2022-09-15T08:49:41.234Z,88.24
2022-09-15T08:50:50.107Z,88.10
2022-09-15T08:51:53.330Z,88.17
2022-09-15T08:53:20.101Z,87.58
2022-09-15T08:54:25.278Z,87.05
2022-09-15T08:55:48.231Z,87.46
2022-09-15T08:56:50.787Z,88.32
2022-09-15T08:57:55.582Z,88.23
2022-09-15T08:58:57.127Z,87.72
2022-09-15T08:59:59.638Z,87.61
2022-09-15T09:01:32.537Z,88.73
2022-09-15T09:03:15.654Z,89.11
2022-09-15T09:04:28.909Z,88.42
2022-09-15T09:05:57.486Z,87.98
2022-09-15T09:07:17.969Z,87.37
2022-09-15T09:08:30.676Z,87.37
2022-09-15T09:09:59.971Z,87.28
2022-09-15T09:11:40.326Z,87.61
2022-09-15T09:12:49.122Z,87.52
2022-09-15T09:14:04.711Z,86.77
2022-09-15T09:15:31.300Z,86.67
2022-09-15T09:17:02.621Z,86.73
2022-09-15T09:18:22.605Z,87.03
2022-09-15T09:19:33.208Z,87.13
2022-09-15T09:20:44.587Z,87.82
2022-09-15T09:21:58.854Z,87.69
2022-09-15T09:23:04.100Z,87.90
2022-09-15T09:24:06.997Z,87.59
2022-09-15T09:25:26.668Z,87.56
2022-09-15T09:26:32.851Z,88.07
2022-09-15T09:27:35.143Z,87.37
2022-09-15T09:28:45.871Z,87.15
2022-09-15T09:29:49.888Z,87.41
2022-09-15T09:30:51.997Z,87.24
2022-09-15T09:31:56.567Z,87.39
2022-09-15T09:33:00.950Z,87.50
2022-09-15T09:34:33.629Z,88.21
2022-09-15T09:35:52.301Z,88.05
2022-09-15T09:36:59.355Z,87.33
2022-09-15T09:38:02.517Z,86.65
2022-09-15T09:39:04.355Z,87.22
2022-09-15T09:40:06.452Z,87.55
2022-09-15T09:41:25.490Z,87.57
2022-09-15T09:42:34.738Z,87.85
2022-09-15T09:43:36.818Z,87.95
2022-09-15T09:44:40.411Z,87.82
2022-09-15T09:45:41.980Z,87.78
2022-09-15T09:46:43.907Z,87.93
2022-09-15T09:47:46.452Z,88.07
2022-09-15T09:48:56.746Z,88.68
2022-09-15T09:49:59.495Z,89.14
2022-09-15T09:51:01.053Z,87.92
2022-09-15T09:52:04.608Z,87.57
2022-09-15T09:53:32.364Z,87.31
2022-09-15T09:54:35.482Z,87.21
2022-09-15T09:55:37.332Z,86.93
2022-09-15T09:56:39.981Z,86.51
2022-09-15T09:57:41.727Z,86.86
2022-09-15T09:58:44.492Z,86.40
2022-09-15T09:59:48.819Z,86.77
2022-09-15T10:00:51.499Z,86.37
2022-09-15T10:02:28.815Z,85.61
2022-09-15T10:03:33.009Z,84.94
2022-09-15T10:04:35.095Z,84.37
2022-09-15T10:05:36.664Z,84.20
2022-09-15T10:06:39.695Z,83.20
2022-09-15T10:07:43.871Z,82.70
2022-09-15T10:09:03.636Z,83.29
2022-09-15T10:10:05.665Z,84.22
2022-09-15T10:11:10.375Z,83.77
2022-09-15T10:12:23.135Z,84.88
2022-09-15T10:13:24.705Z,84.69
2022-09-15T10:14:29.682Z,85.21
2022-09-15T10:15:34.766Z,84.67
2022-09-15T10:16:36.439Z,84.91
2022-09-15T10:17:43.532Z,85.38
2022-09-15T10:18:47.583Z,85.15
2022-09-15T10:19:53.937Z,85.46
2022-09-15T10:20:55.706Z,85.50
2022-09-15T10:22:00.268Z,84.93
2022-09-15T10:23:06.785Z,85.47
2022-09-15T10:24:31.179Z,85.71
2022-09-15T10:25:58.216Z,84.88
2022-09-15T10:27:19.506Z,84.07
2022-09-15T10:28:23.241Z,84.53
2022-09-15T10:29:24.705Z,84.65
2022-09-15T10:30:27.387Z,84.24
2022-09-15T10:31:31.579Z,84.64
2022-09-15T10:32:33.054Z,84.18
2022-09-15T10:33:44.984Z,84.62
2022-09-15T10:34:48.812Z,85.13
2022-09-15T10:35:51.277Z,83.89
2022-09-15T10:37:05.898Z,84.72
2022-09-15T10:38:15.827Z,84.64
2022-09-15T10:39:50.159Z,83.78
2022-09-15T10:41:18.030Z,84.31
2022-09-15T10:42:24.037Z,84.12
2022-09-15T10:43:58.119Z,84.62
2022-09-15T10:45:11.049Z,83.87
2022-09-15T10:46:26.797Z,83.82
2022-09-15T10:47:39.997Z,83.02
2022-09-15T10:48:54.334Z,83.01
2022-09-15T10:50:15.771Z,83.16
2022-09-15T10:51:27.959Z,83.52
2022-09-15T10:52:42.426Z,83.65
2022-09-15T10:53:57.171Z,82.84
2022-09-15T10:55:06.558Z,82.92
2022-09-15T10:56:36.938Z,83.17
2022-09-15T10:58:02.689Z,83.58
2022-09-15T10:59:16.360Z,83.49
2022-09-15T11:00:23.086Z,83.16
2022-09-15T11:01:24.945Z,82.22
2022-09-15T11:02:45.259Z,83.14
2022-09-15T11:04:02.997Z,83.12
2022-09-15T11:05:32.439Z,83.19
2022-09-15T11:06:44.169Z,82.16
2022-09-15T11:08:00.647Z,81.53
2022-09-15T11:09:29.626Z,81.88
2022-09-15T11:10:42.342Z,82.02
2022-09-15T11:12:03.650Z,81.75
2022-09-15T11:13:29.766Z,80.64
2022-09-15T11:14:47.245Z,81.04
2022-09-15T11:16:06.730Z,81.74
2022-09-15T11:17:44.103Z,81.56
2022-09-15T11:19:04.282Z,81.64
2022-09-15T11:20:32.926Z,82.64
2022-09-15T11:21:41.365Z,81.79
2022-09-15T11:23:09.845Z,81.52
2022-09-15T11:24:22.575Z,81.85
2022-09-15T11:25:28.215Z,81.87
2022-09-15T11:26:52.592Z,82.14
2022-09-15T11:28:25.144Z,82.36
2022-09-15T11:29:40.467Z,81.74
2022-09-15T11:30:51.674Z,81.01
2022-09-15T11:33:18.030Z,80.55
2022-09-15T11:34:28.785Z,80.63
2022-09-15T11:35:31.146Z,80.54
2022-09-15T11:37:03.131Z,80.49
2022-09-15T11:38:35.803Z,79.52
2022-09-15T11:39:46.223Z,79.48
2022-09-15T11:41:03.775Z,79.71
2022-09-15T11:42:14.552Z,80.08
2022-09-15T11:43:21.710Z,79.08
2022-09-15T11:44:27.810Z,78.63
2022-09-15T11:45:38.388Z,79.51
2022-09-15T11:47:04.819Z,79.06
2022-09-15T11:48:18.670Z,77.60
2022-09-15T11:49:30.116Z,76.38
2022-09-15T11:50:39.515Z,77.88
2022-09-15T11:51:50.732Z,77.56
2022-09-15T11:52:55.126Z,77.88
2022-09-15T11:54:17.299Z,76.90
2022-09-15T11:55:39.378Z,77.49
2022-09-15T11:56:46.431Z,77.58
2022-09-15T11:57:55.539Z,76.33
2022-09-15T11:59:23.303Z,76.74
2022-09-15T12:00:24.770Z,76.47
2022-09-15T12:01:56.968Z,76.46
2022-09-15T12:03:23.186Z,75.45
2022-09-15T12:04:39.262Z,76.72
2022-09-15T12:05:48.559Z,76.67
2022-09-15T12:08:15.414Z,76.02
2022-09-15T12:09:19.729Z,76.58
2022-09-15T12:10:27.569Z,76.72
2022-09-15T12:11:33.231Z,76.20
2022-09-15T12:12:36.103Z,75.58
2022-09-15T12:13:37.581Z,75.42
2022-09-15T12:14:42.693Z,76.09
2022-09-15T12:15:46.567Z,75.41
2022-09-15T12:16:48.413Z,76.25
2022-09-15T12:18:06.449Z,75.69
2022-09-15T12:19:34.677Z,75.64
2022-09-15T12:20:48.625Z,75.57
2022-09-15T12:21:57.054Z,76.08
2022-09-15T12:23:09.615Z,76.02
2022-09-15T12:24:33.848Z,75.64
2022-09-15T12:25:55.874Z,76.14
2022-09-15T12:27:00.772Z,76.33
2022-09-15T12:28:23.942Z,77.19
2022-09-15T12:29:30.386Z,77.40
2022-09-15T12:30:41.448Z,77.23
2022-09-15T12:31:45.296Z,78.12
2022-09-15T12:32:47.587Z,77.29
2022-09-15T12:33:51.749Z,77.46
2022-09-15T12:35:25.708Z,76.89
2022-09-15T12:36:45.735Z,76.67
2022-09-15T12:38:00.488Z,76.60
2022-09-15T12:39:04.151Z,76.84
2022-09-15T12:40:07.925Z,77.46
2022-09-15T12:41:11.321Z,76.47
2022-09-15T12:42:23.303Z,76.31
2022-09-15T12:43:25.697Z,76.11
2022-09-15T12:44:38.169Z,75.14
2022-09-15T12:45:43.037Z,74.52
2022-09-15T12:46:52.172Z,74.74
2022-09-15T12:48:07.579Z,75.10
2022-09-15T12:49:18.029Z,74.96
2022-09-15T12:50:19.824Z,74.83
2022-09-15T12:51:25.360Z,75.39
2022-09-15T12:52:28.497Z,74.54
2022-09-15T12:54:40.107Z,71.28
2022-09-15T12:55:55.388Z,73.18
2022-09-15T12:56:58.159Z,71.59
2022-09-15T12:58:07.404Z,72.25
2022-09-15T12:59:15.024Z,72.48
2022-09-15T13:01:14.267Z,71.25
2022-09-15T13:02:42.534Z,71.10
2022-09-15T13:03:43.986Z,70.44
2022-09-15T13:04:54.625Z,70.10
2022-09-15T13:06:14.936Z,70.75
2022-09-15T13:07:16.347Z,70.82
2022-09-15T13:08:23.896Z,69.70
2022-09-15T13:09:27.498Z,69.79
2022-09-15T13:10:29.175Z,69.35
2022-09-15T13:11:34.669Z,69.16
2022-09-15T13:12:42.529Z,69.73
2022-09-15T13:13:52.571Z,70.20
2022-09-15T13:14:56.293Z,70.36
2022-09-15T13:15:58.051Z,70.15
2022-09-15T13:17:07.318Z,70.74
2022-09-15T13:18:11.544Z,70.45
2022-09-15T13:19:29.471Z,71.04
2022-09-15T13:20:38.157Z,70.77
2022-09-15T13:21:46.003Z,70.19
2022-09-15T13:22:51.585Z,70.01
2022-09-15T13:23:54.403Z,70.27
2022-09-15T13:25:02.084Z,69.76
2022-09-15T13:26:07.192Z,69.24
2022-09-15T13:27:09.674Z,69.52
2022-09-15T13:28:13.584Z,69.95
2022-09-15T13:29:16.946Z,69.41
2022-09-15T13:30:21.583Z,68.99
2022-09-15T13:31:45.785Z,67.85
2022-09-15T13:33:23.932Z,68.00
2022-09-15T13:35:09.227Z,67.20
2022-09-15T13:38:38.008Z,67.59
2022-09-15T13:40:10.779Z,66.87
2022-09-15T13:41:27.500Z,65.68
2022-09-15T13:42:35.586Z,65.10
2022-09-15T13:44:10.259Z,65.41
2022-09-15T13:45:45.800Z,65.96
2022-09-15T13:47:26.526Z,66.94
2022-09-15T13:49:06.976Z,66.74
2022-09-15T13:50:23.710Z,64.92
2022-09-15T13:51:29.225Z,64.85
2022-09-15T13:52:48.082Z,64.19
2022-09-15T13:53:56.442Z,64.03
2022-09-15T13:55:11.934Z,63.80
2022-09-15T13:56:26.875Z,64.47
2022-09-15T13:58:56.548Z,65.38
2022-09-15T14:00:03.429Z,64.70
2022-09-15T14:01:07.271Z,64.95
2022-09-15T14:02:09.674Z,65.00
2022-09-15T14:03:17.421Z,65.24
2022-09-15T14:04:29.113Z,65.51
2022-09-15T14:05:34.963Z,66.36
2022-09-15T14:06:43.144Z,66.37
2022-09-15T14:07:52.684Z,66.75
2022-09-15T14:08:58.824Z,67.29
2022-09-15T14:10:00.396Z,67.19
2022-09-15T14:11:08.337Z,67.48
2022-09-15T14:12:12.834Z,66.86
2022-09-15T14:13:17.873Z,67.22
2022-09-15T14:14:28.402Z,67.22
2022-09-15T14:15:30.175Z,66.49
2022-09-15T14:16:36.500Z,67.58
2022-09-15T14:17:45.491Z,65.80
2022-09-15T14:18:46.937Z,65.19
2022-09-15T14:19:50.870Z,64.54
2022-09-15T14:21:00.564Z,64.44
2022-09-15T14:22:20.190Z,64.21
2022-09-15T14:23:21.669Z,65.08
2022-09-15T14:24:30.752Z,63.23
2022-09-15T14:25:32.329Z,62.81
2022-09-15T14:26:35.889Z,62.24
2022-09-15T14:27:43.596Z,64.43
2022-09-15T14:28:51.122Z,64.07
2022-09-15T14:29:57.884Z,63.64
2022-09-15T14:31:01.218Z,64.42
2022-09-15T14:32:04.245Z,63.22